Time;durP1;ratioP1;P1;durP2;ratioP2;P2;SDS_P1;SDS_P2;PMS_P1;PMS_P2;Temp;Humidity;BMP_temperature;BMP_pressure;BME280_temperature;BME280_humidity;BME280_pressure;Samples;Min_cycle;Max_cycle;Signal;HPM_P1;HPM_P2
2021/07/10 00:00:46;;;;;;;43.92;22.92;;;;;;;15.51;100.00;100826.81;4941838;29;20101;-67
2021/07/10 00:03:30;;;;;;;37.85;24.77;;;;;;;15.49;100.00;100829.66;4956085;29;20412;-67
2021/07/10 00:06:14;;;;;;;38.83;22.77;;;;;;;15.47;100.00;100820.06;4941590;29;20054;-66
2021/07/10 00:08:58;;;;;;;30.60;22.33;;;;;;;15.41;100.00;100820.72;4941354;29;20047;-67
2021/07/10 00:11:42;;;;;;;30.17;21.38;;;;;;;15.38;100.00;100812.97;4941382;29;20054;-67
2021/07/10 00:14:26;;;;;;;41.95;22.65;;;;;;;15.31;100.00;100815.47;4941047;29;20500;-67
2021/07/10 00:17:10;;;;;;;44.70;23.55;;;;;;;15.28;100.00;100814.91;4941360;29;20054;-67
2021/07/10 00:19:54;;;;;;;42.88;25.80;;;;;;;15.26;100.00;100814.22;4955806;29;20516;-67
2021/07/10 00:22:39;;;;;;;41.53;25.25;;;;;;;15.24;100.00;100816.25;4941181;29;20054;-67
2021/07/10 00:25:23;;;;;;;32.35;21.30;;;;;;;15.18;100.00;100798.06;4941115;29;20046;-67
2021/07/10 00:28:08;;;;;;;34.53;23.75;;;;;;;15.13;100.00;100803.09;4955674;29;20050;-67
2021/07/10 00:30:52;;;;;;;35.67;23.02;;;;;;;15.11;100.00;100797.06;4940943;29;20053;-65
2021/07/10 00:33:36;;;;;;;37.53;22.45;;;;;;;15.06;100.00;100804.72;4940819;29;20158;-67
2021/07/10 00:36:20;;;;;;;32.95;22.52;;;;;;;15.02;100.00;100800.69;4940794;29;20066;-67
2021/07/10 00:39:05;;;;;;;32.58;20.85;;;;;;;15.00;100.00;100800.03;4940972;29;20515;-67
2021/07/10 00:41:49;;;;;;;33.03;20.50;;;;;;;14.94;100.00;100806.00;4927646;29;20050;-67
2021/07/10 00:44:33;;;;;;;46.58;24.92;;;;;;;14.89;100.00;100813.72;4955463;29;20136;-67
2021/07/10 00:47:17;;;;;;;38.13;20.27;;;;;;;14.82;100.00;100810.81;4940905;29;20127;-67
2021/07/10 00:50:22;;;;;;;42.45;21.60;;;;;;;14.78;100.00;100811.31;4940897;29;20416;-67
2021/07/10 00:53:06;;;;;;;;;;;;;;;14.76;100.00;100807.91;4954769;29;20134;-66
2021/07/10 00:55:50;;;;;;;38.07;22.00;;;;;;;14.70;100.00;100800.50;4954072;29;19922;-67
2021/07/10 00:58:35;;;;;;;39.10;24.83;;;;;;;14.69;100.00;100796.97;4927074;29;20120;-66
2021/07/10 01:01:19;;;;;;;54.03;26.73;;;;;;;14.66;100.00;100801.78;4927084;29;20134;-67
2021/07/10 01:04:03;;;;;;;42.72;24.70;;;;;;;14.63;100.00;100786.88;4927403;29;20094;-67
2021/07/10 01:06:48;;;;;;;61.42;27.20;;;;;;;14.60;100.00;100792.53;4942752;29;20054;-67
2021/07/10 01:09:31;;;;;;;36.97;22.40;;;;;;;14.56;100.00;100783.13;4958259;29;20093;-67
2021/07/10 01:12:15;;;;;;;47.03;24.23;;;;;;;14.52;100.00;100786.28;4931180;29;20281;-67
2021/07/10 01:14:59;;;;;;;34.17;21.88;;;;;;;14.50;100.00;100780.25;4944514;28;20085;-67
2021/07/10 01:17:45;;;;;;;45.38;22.52;;;;;;;14.47;100.00;100777.88;4944822;29;20054;-67
2021/07/10 01:20:29;;;;;;;24.40;19.65;;;;;;;14.50;100.00;100780.25;4944347;29;20412;-67
2021/07/10 01:23:13;;;;;;;41.08;23.75;;;;;;;14.49;100.00;100778.56;4944190;29;20499;-66
2021/07/10 01:25:57;;;;;;;46.25;23.00;;;;;;;14.46;100.00;100770.78;4944331;29;20061;-67
2021/07/10 01:28:41;;;;;;;38.33;22.60;;;;;;;14.40;100.00;100777.63;4959137;29;20552;-67
2021/07/10 01:31:25;;;;;;;32.20;18.92;;;;;;;14.36;100.00;100778.09;4958562;29;20141;-67
2021/07/10 01:34:09;;;;;;;49.13;24.50;;;;;;;14.34;100.00;100770.22;4943990;29;20070;-67
2021/07/10 01:36:53;;;;;;;38.10;21.65;;;;;;;14.34;100.00;100766.69;4944143;29;20147;-67
2021/07/10 01:39:37;;;;;;;38.55;23.25;;;;;;;14.33;100.00;100767.69;4944112;29;20086;-67
2021/07/10 01:42:21;;;;;;;51.80;25.92;;;;;;;14.32;100.00;100761.50;4958362;29;20050;-67
2021/07/10 01:45:06;;;;;;;33.78;20.38;;;;;;;14.27;100.00;100758.44;4958299;28;20531;-65
2021/07/10 01:47:50;;;;;;;28.98;20.20;;;;;;;14.24;100.00;100757.91;4944102;29;20636;-67
2021/07/10 01:50:35;;;;;;;34.55;20.02;;;;;;;14.20;100.00;100754.69;4958499;29;20050;-67
2021/07/10 01:53:19;;;;;;;36.40;20.70;;;;;;;14.17;100.00;100751.50;4930457;29;20054;-67
2021/07/10 01:56:03;;;;;;;43.55;22.73;;;;;;;14.14;100.00;100749.06;4943537;29;20046;-68
2021/07/10 01:58:46;;;;;;;33.55;22.33;;;;;;;14.13;100.00;100742.03;4943461;29;20054;-67
2021/07/10 02:01:32;;;;;;;36.83;21.42;;;;;;;14.11;100.00;100741.34;4930334;29;20178;-67
2021/07/10 02:04:18;;;;;;;57.88;26.20;;;;;;;14.09;100.00;100748.69;4943729;29;20182;-66
2021/07/10 02:07:03;;;;;;;38.42;22.70;;;;;;;14.04;100.00;100745.63;4930339;29;20050;-66
2021/07/10 02:09:47;;;;;;;29.60;20.25;;;;;;;14.02;100.00;100745.81;4943613;29;20115;-67
2021/07/10 02:12:31;;;;;;;32.58;20.50;;;;;;;13.97;100.00;100747.25;4943335;29;20123;-64
2021/07/10 02:15:15;;;;;;;38.28;20.48;;;;;;;13.93;100.00;100743.19;4943324;28;20416;-66
2021/07/10 02:17:59;;;;;;;33.80;19.45;;;;;;;13.90;100.00;100733.66;4942044;29;20054;-67
2021/07/10 02:20:43;;;;;;;50.50;24.10;;;;;;;13.87;100.00;100739.28;4943673;29;20137;-67
2021/07/10 02:23:27;;;;;;;41.60;20.58;;;;;;;13.83;100.00;100737.94;4956946;29;20081;-67
2021/07/10 02:26:11;;;;;;;33.28;20.63;;;;;;;13.80;100.00;100732.03;4943080;29;20058;-67
2021/07/10 02:28:55;;;;;;;31.35;20.63;;;;;;;13.80;100.00;100726.66;4943262;29;20111;-67
2021/07/10 02:31:39;;;;;;;32.88;21.30;;;;;;;13.77;100.00;100733.16;4942932;29;20049;-67
2021/07/10 02:34:23;;;;;;;54.13;23.67;;;;;;;13.76;100.00;100730.66;4943187;29;20050;-67
2021/07/10 02:37:07;;;;;;;30.98;20.70;;;;;;;13.73;100.00;100725.59;4929713;29;20098;-67
2021/07/10 02:39:51;;;;;;;38.55;22.05;;;;;;;13.71;100.00;100727.56;4942966;29;20058;-66
2021/07/10 02:42:35;;;;;;;33.35;21.15;;;;;;;13.68;100.00;100733.25;4943031;29;20096;-67
2021/07/10 02:45:20;;;;;;;46.60;22.05;;;;;;;13.65;100.00;100726.34;4929482;29;20046;-67
2021/07/10 02:48:04;;;;;;;37.65;22.45;;;;;;;13.63;100.00;100727.50;4957447;29;20049;-67
2021/07/10 02:50:48;;;;;;;54.40;26.85;;;;;;;13.61;100.00;100727.66;4929399;29;20098;-66
2021/07/10 02:53:32;;;;;;;41.08;22.50;;;;;;;13.60;100.00;100723.31;4957386;29;20099;-67
2021/07/10 02:56:16;;;;;;;;;;;;;;;13.59;100.00;100723.44;4959155;28;20105;-65
2021/07/10 02:59:00;;;;;;;40.33;23.20;;;;;;;13.56;100.00;100719.22;4956911;29;19928;-67
2021/07/10 03:01:43;;;;;;;40.22;23.10;;;;;;;13.55;100.00;100714.88;4929304;29;20054;-67
2021/07/10 03:04:27;;;;;;;37.63;22.90;;;;;;;13.54;100.00;100720.38;4942659;29;20050;-67
2021/07/10 03:07:11;;;;;;;55.95;24.67;;;;;;;13.52;100.00;100717.00;4942584;29;20085;-67
2021/07/10 03:09:55;;;;;;;32.13;21.45;;;;;;;13.49;100.00;100712.81;4942283;29;20089;-67
2021/07/10 03:12:39;;;;;;;32.53;20.75;;;;;;;13.46;100.00;100701.56;4942444;29;20420;-67
2021/07/10 03:15:24;;;;;;;38.90;21.75;;;;;;;13.43;100.00;100707.19;4942392;29;20054;-67
2021/07/10 03:18:08;;;;;;;39.55;22.13;;;;;;;13.42;100.00;100708.19;4942357;29;20054;-67
2021/07/10 03:20:52;;;;;;;27.00;19.90;;;;;;;13.41;100.00;100711.88;4955916;29;20058;-67
2021/07/10 03:23:37;;;;;;;33.25;21.23;;;;;;;13.38;100.00;100702.28;4942008;29;20077;-67
2021/07/10 03:26:21;;;;;;;37.45;22.38;;;;;;;13.33;100.00;100711.78;4928686;29;20580;-67
2021/07/10 03:29:05;;;;;;;41.35;22.30;;;;;;;13.29;100.00;100707.72;4942251;29;20170;-67
2021/07/10 03:31:49;;;;;;;26.83;19.38;;;;;;;13.27;100.00;100701.69;4928724;29;20198;-67
2021/07/10 03:34:32;;;;;;;26.50;19.58;;;;;;;13.26;100.00;100702.69;4942145;29;20110;-67
2021/07/10 03:37:16;;;;;;;38.80;22.63;;;;;;;13.26;100.00;100705.38;4941826;29;20106;-67
2021/07/10 03:40:02;;;;;;;;;;;;;;;13.26;100.00;100705.38;4955893;29;20106;-67
2021/07/10 03:42:46;;;;;;;45.25;22.42;;;;;;;13.25;100.00;100703.69;4955492;29;20478;-67
2021/07/10 03:45:30;;;;;;;27.08;18.15;;;;;;;13.21;100.00;100699.59;4928190;29;20069;-67
2021/07/10 03:48:14;;;;;;;35.25;20.38;;;;;;;13.19;100.00;100699.78;4941862;29;20053;-66
2021/07/10 03:50:59;;;;;;;31.02;20.58;;;;;;;13.19;100.00;100694.41;4941813;29;20102;-67
2021/07/10 03:53:42;;;;;;;32.08;20.88;;;;;;;13.21;100.00;100696.91;4941399;29;20049;-67
2021/07/10 03:56:26;;;;;;;34.03;20.17;;;;;;;13.23;100.00;100702.97;4927878;29;20062;-67
2021/07/10 03:59:10;;;;;;;38.80;21.40;;;;;;;13.19;100.00;100696.22;4955815;29;20046;-66
2021/07/10 04:01:54;;;;;;;42.40;23.05;;;;;;;13.19;100.00;100699.78;4928089;29;20079;-67
2021/07/10 04:04:38;;;;;;;29.92;19.73;;;;;;;13.20;100.00;100700.59;4941461;28;20055;-67
2021/07/10 04:07:22;;;;;;;37.58;22.83;;;;;;;13.21;100.00;100697.78;4928070;29;20077;-67
2021/07/10 04:10:07;;;;;;;30.13;20.77;;;;;;;13.25;100.00;100695.66;4941384;29;20050;-67
2021/07/10 04:12:52;;;;;;;38.70;22.15;;;;;;;13.27;100.00;100701.69;4954925;29;20131;-67
2021/07/10 04:15:35;;;;;;;37.08;21.70;;;;;;;13.29;100.00;100700.56;4941292;29;20074;-67
2021/07/10 04:18:19;;;;;;;31.60;21.13;;;;;;;13.33;100.00;100696.56;4928174;29;20058;-67
2021/07/10 04:21:04;;;;;;;45.17;24.83;;;;;;;13.37;100.00;100692.56;4928110;29;20098;-67
2021/07/10 04:23:48;;;;;;;43.72;24.15;;;;;;;13.46;100.00;100699.72;4941559;29;20109;-66
2021/07/10 04:26:32;;;;;;;37.88;22.80;;;;;;;13.54;100.00;100694.44;4940952;29;20046;-67
2021/07/10 04:29:16;;;;;;;33.88;22.00;;;;;;;13.62;100.00;100696.34;4940959;29;20102;-66
2021/07/10 04:32:00;;;;;;;47.53;25.10;;;;;;;13.69;100.00;100702.78;4927422;29;20054;-67
2021/07/10 04:34:45;;;;;;;32.78;20.50;;;;;;;13.74;100.00;100701.31;4941009;28;20409;-67
2021/07/10 04:37:29;;;;;;;39.67;24.13;;;;;;;13.83;100.00;100708.44;4955523;29;20049;-66
2021/07/10 04:40:13;;;;;;;45.85;23.70;;;;;;;13.92;100.00;100712.03;4940773;28;20102;-66
2021/07/10 04:42:57;;;;;;;31.95;19.23;;;;;;;14.02;100.00;100708.28;4927573;29;20046;-67
2021/07/10 04:45:41;;;;;;;39.40;20.38;;;;;;;14.11;100.00;100714.53;4941140;29;20054;-67
2021/07/10 04:48:25;;;;;;;38.15;20.55;;;;;;;14.24;100.00;100710.47;4941150;29;20042;-67
2021/07/10 04:51:09;;;;;;;31.88;18.90;;;;;;;14.29;100.00;100712.69;4927607;29;20133;-67
2021/07/10 04:53:53;;;;;;;28.50;17.63;;;;;;;14.39;100.00;100708.06;4941412;29;20114;-67
2021/07/10 04:56:37;;;;;;;33.75;19.13;;;;;;;14.46;100.00;100707.28;4940589;29;20094;-67
2021/07/10 04:59:21;;;;;;;30.17;19.92;;;;;;;14.58;100.00;100699.81;4940570;29;20098;-67
2021/07/10 05:02:05;;;;;;;25.65;19.65;;;;;;;14.74;100.00;100702.56;4941114;29;20050;-67
2021/07/10 05:04:49;;;;;;;25.98;19.95;;;;;;;14.81;100.00;100695.56;4927506;28;20050;-67
2021/07/10 05:07:33;;;;;;;24.75;20.23;;;;;;;14.90;100.00;100690.03;4940845;29;20050;-67
2021/07/10 05:10:16;;;;;;;25.48;20.25;;;;;;;15.00;100.00;100695.31;4955376;29;20432;-66
2021/07/10 05:13:00;;;;;;;30.42;21.58;;;;;;;15.04;100.00;100705.56;4955339;29;20413;-67
2021/07/10 05:15:44;;;;;;;22.80;19.60;;;;;;;15.09;100.00;100702.38;4927404;29;20457;-67
2021/07/10 05:18:28;;;;;;;27.17;18.98;;;;;;;15.16;100.00;100706.09;4940662;29;20111;-67
2021/07/10 05:21:12;;;;;;;27.70;19.98;;;;;;;15.29;100.00;100709.19;4940529;29;20420;-67
2021/07/10 05:23:56;;;;;;;34.10;17.05;;;;;;;15.35;100.00;100713.91;4955231;29;20054;-66
2021/07/10 05:26:40;;;;;;;22.42;18.52;;;;;;;15.45;100.00;100709.22;4927192;29;20113;-67
2021/07/10 05:29:23;;;;;;;30.50;21.23;;;;;;;15.51;100.00;100705.91;4940917;29;20142;-67
2021/07/10 05:32:08;;;;;;;28.20;19.50;;;;;;;15.58;100.00;100705.06;4926902;29;20428;-67
2021/07/10 05:34:52;;;;;;;26.92;17.38;;;;;;;15.61;100.00;100704.72;4927227;28;20058;-67
2021/07/10 05:37:36;;;;;;;22.67;16.02;;;;;;;15.60;100.00;100696.84;4940620;29;20097;-67
2021/07/10 05:40:20;;;;;;;18.92;15.57;;;;;;;15.51;100.00;100704.03;4927179;29;20524;-67
2021/07/10 05:43:04;;;;;;;25.20;18.13;;;;;;;15.47;100.00;100702.69;4940308;29;20114;-67
2021/07/10 05:45:48;;;;;;;35.10;16.67;;;;;;;15.49;100.00;100705.22;4940590;29;20106;-67
2021/07/10 05:48:33;;;;;;;30.45;18.05;;;;;;;15.50;100.00;100707.72;4926905;29;20050;-64
2021/07/10 05:51:18;;;;;;;28.73;18.30;;;;;;;15.61;100.00;100704.72;4941057;29;20054;-67
2021/07/10 05:54:02;;;;;;;26.02;18.75;;;;;;;15.73;100.00;100706.06;4930600;29;20089;-67
2021/07/10 05:56:46;;;;;;;28.08;19.92;;;;;;;15.92;100.00;100713.81;4943557;29;20054;-67
2021/07/10 05:59:29;;;;;;;19.33;16.85;;;;;;;16.06;100.00;100707.78;4943953;29;20058;-67
2021/07/10 06:02:13;;;;;;;;;;;;;;;16.22;100.00;100705.94;4959014;29;20085;-67
2021/07/10 06:04:57;;;;;;;19.85;17.75;;;;;;;16.35;100.00;100697.31;4957172;28;20426;-67
2021/07/10 06:07:41;;;;;;;;;;;;;;;16.32;100.00;100708.44;4931091;29;20061;-67
2021/07/10 06:10:25;;;;;;;18.17;14.95;;;;;;;16.29;100.00;100701.53;4957553;29;19984;-67
2021/07/10 06:13:09;;;;;;;20.20;17.40;;;;;;;16.37;100.00;100695.34;4943525;29;20087;-67
2021/07/10 06:15:53;;;;;;;21.15;17.35;;;;;;;16.46;100.00;100684.38;4929991;29;20054;-67
2021/07/10 06:18:37;;;;;;;17.92;15.05;;;;;;;16.56;100.00;100689.59;4943172;29;20533;-67
2021/07/10 06:21:21;;;;;;;19.33;15.55;;;;;;;16.73;100.00;100689.38;4957759;29;20054;-65
2021/07/10 06:24:05;;;;;;;16.15;14.55;;;;;;;16.80;100.00;100694.91;4943570;29;20141;-67
2021/07/10 06:26:49;;;;;;;;;;;;;;;16.96;100.00;100689.44;4943553;29;20126;-67
2021/07/10 06:29:33;;;;;;;16.92;15.13;;;;;;;17.08;100.00;100688.88;4956817;29;19969;-67
2021/07/10 06:32:17;;;;;;;15.20;13.60;;;;;;;17.04;100.00;100686.72;4929964;29;20138;-68
2021/07/10 06:35:01;;;;;;;15.10;12.98;;;;;;;17.11;100.00;100688.53;4957572;28;20054;-67
2021/07/10 06:37:44;;;;;;;17.13;14.70;;;;;;;17.13;100.00;100683.81;4943197;29;20054;-67
2021/07/10 06:40:28;;;;;;;17.38;15.52;;;;;;;17.16;100.00;100686.16;4943227;29;20046;-67
2021/07/10 06:43:12;;;;;;;17.00;15.30;;;;;;;17.31;100.00;100683.53;4943209;29;20119;-66
2021/07/10 06:45:56;;;;;;;17.17;15.32;;;;;;;17.41;100.00;100690.41;4942880;29;20053;-67
2021/07/10 06:48:40;;;;;;;16.85;15.02;;;;;;;17.65;100.00;100695.66;4929622;29;20110;-67
2021/07/10 06:51:24;;;;;;;17.83;15.05;;;;;;;17.83;100.00;100688.09;4957599;29;20053;-67
2021/07/10 06:54:09;;;;;;;16.58;14.77;;;;;;;17.96;100.00;100695.59;4942700;29;20412;-67
2021/07/10 06:56:53;;;;;;;17.75;14.73;;;;;;;17.99;100.00;100690.66;4956041;28;20054;-67
2021/07/10 06:59:37;;;;;;;15.68;14.07;;;;;;;18.14;100.00;100693.41;4957463;29;20054;-67
2021/07/10 07:02:21;;;;;;;14.13;12.48;;;;;;;18.15;100.00;100695.94;4942903;29;20050;-67
2021/07/10 07:05:05;;;;;;;13.98;12.43;;;;;;;18.18;100.00;100684.78;4942182;28;20488;-67
2021/07/10 07:07:50;;;;;;;13.52;12.13;;;;;;;18.28;100.00;100685.34;4942946;29;20077;-67
2021/07/10 07:10:34;;;;;;;16.60;14.70;;;;;;;18.33;100.00;100676.75;4942704;29;20404;-67
2021/07/10 07:13:18;;;;;;;13.77;12.30;;;;;;;18.37;100.00;100673.50;4942517;29;20050;-67
2021/07/10 07:16:02;;;;;;;16.38;13.07;;;;;;;18.43;100.00;100664.63;4942378;29;20070;-67
2021/07/10 07:18:46;;;;;;;14.45;12.95;;;;;;;18.42;100.00;100661.13;4942688;29;20050;-68
2021/07/10 07:21:29;;;;;;;13.68;12.25;;;;;;;18.43;100.00;100659.22;4928928;29;20081;-67
2021/07/10 07:24:13;;;;;;;13.45;12.05;;;;;;;18.50;100.00;100652.06;4942527;29;20049;-67
2021/07/10 07:26:58;;;;;;;13.32;12.02;;;;;;;18.43;100.00;100656.53;4942235;29;20196;-67
2021/07/10 07:29:42;;;;;;;12.35;10.75;;;;;;;18.46;100.00;100658.88;4942432;29;20050;-67
2021/07/10 07:32:27;;;;;;;13.00;11.70;;;;;;;18.42;100.00;100644.06;4942210;29;20049;-67
2021/07/10 07:35:13;;;;;;;13.73;11.25;;;;;;;18.42;100.00;100644.06;4943221;28;20118;-67
2021/07/10 07:37:57;;;;;;;11.52;10.32;;;;;;;18.48;100.00;100637.94;4942382;29;20117;-66
2021/07/10 07:40:41;;;;;;;10.35;9.38;;;;;;;18.50;100.00;100641.28;4942089;29;20046;-67
2021/07/10 07:43:25;;;;;;;13.60;11.60;;;;;;;18.58;100.00;100638.50;4942486;29;20097;-67
2021/07/10 07:46:09;;;;;;;;;;;;;;;18.67;100.00;100637.38;4942492;29;20046;-67
2021/07/10 07:48:53;;;;;;;12.23;10.30;;;;;;;18.64;100.00;100637.72;4956826;29;19973;-67
2021/07/10 07:51:37;;;;;;;12.57;9.68;;;;;;;18.65;100.00;100634.84;4956680;29;20101;-67
2021/07/10 07:54:20;;;;;;;10.27;8.93;;;;;;;18.67;100.00;100626.56;4942189;29;20468;-67
2021/07/10 07:57:06;;;;;;;12.82;9.88;;;;;;;18.74;100.00;100632.88;4955422;29;20412;-69
2021/07/10 07:59:49;;;;;;;11.43;10.32;;;;;;;18.81;100.00;100631.13;4954956;29;20496;-67
2021/07/10 08:02:33;;;;;;;10.98;9.75;;;;;;;18.90;100.00;100625.41;4941886;29;20081;-66
2021/07/10 08:05:18;;;;;;;11.45;10.18;;;;;;;19.00;100.00;100627.81;4941713;28;20053;-67
2021/07/10 08:08:02;;;;;;;10.25;9.07;;;;;;;19.11;100.00;100624.63;4941546;29;20106;-67
2021/07/10 08:10:46;;;;;;;10.05;8.95;;;;;;;19.26;100.00;100628.16;4941898;29;20042;-65
2021/07/10 08:13:32;;;;;;;9.55;8.52;;;;;;;19.46;100.00;100631.91;4941763;29;20057;-67
2021/07/10 08:16:16;;;;;;;10.30;8.63;;;;;;;19.67;100.00;100626.50;4955012;28;20150;-67
2021/07/10 08:19:00;;;;;;;11.65;8.88;;;;;;;19.89;100.00;100625.47;4954875;29;20109;-68
2021/07/10 08:21:45;;;;;;;9.27;8.30;;;;;;;19.98;97.14;100621.56;4941558;29;20118;-67
2021/07/10 08:24:29;;;;;;;11.18;7.30;;;;;;;20.06;89.52;100605.22;4928093;29;20053;-67
2021/07/10 08:27:13;;;;;;;;;;;;;;;20.19;87.75;100602.63;4942192;29;20085;-67
2021/07/10 08:29:57;;;;;;;8.30;7.50;;;;;;;20.32;89.89;100602.72;4941674;29;19941;-67
2021/07/10 08:32:42;;;;;;;;;;;;;;;20.48;89.43;100592.41;4955203;29;20050;-68
2021/07/10 08:35:26;;;;;;;7.70;6.90;;;;;;;20.63;90.71;100595.78;4954930;29;20344;-68
2021/07/10 08:38:10;;;;;;;8.38;7.40;;;;;;;20.83;93.04;100593.19;4954641;29;20468;-67
2021/07/10 08:40:54;;;;;;;9.18;8.05;;;;;;;21.00;93.10;100591.81;4941183;29;20054;-67
2021/07/10 08:43:40;;;;;;;10.27;8.38;;;;;;;21.19;90.60;100590.00;4954816;29;20058;-68
2021/07/10 08:46:24;;;;;;;9.00;7.65;;;;;;;21.24;89.33;100590.25;4954342;29;20138;-67
2021/07/10 08:49:12;;;;;;;10.43;7.63;;;;;;;21.38;90.14;100585.69;4955286;29;20121;-67
2021/07/10 08:51:57;;;;;;;9.35;7.70;;;;;;;21.51;90.40;100583.81;4954451;29;20109;-68
2021/07/10 08:54:41;;;;;;;8.00;7.18;;;;;;;21.61;89.89;100584.22;4940992;28;20050;-68
2021/07/10 08:57:26;;;;;;;9.60;7.32;;;;;;;21.77;87.42;100583.88;5010020;22;20065;-66
2021/07/10 09:00:14;;;;;;;7.60;6.90;;;;;;;21.90;85.89;100591.19;4998641;28;20099;-65
2021/07/10 09:03:00;;;;;;;7.63;6.93;;;;;;;22.11;86.51;100586.34;4998803;28;20415;-65
2021/07/10 09:05:44;;;;;;;8.48;7.63;;;;;;;22.32;84.71;100583.38;4998643;28;20082;-66
2021/07/10 09:08:29;;;;;;;8.73;7.82;;;;;;;22.55;84.43;100586.53;5013542;28;20053;-65
2021/07/10 09:11:14;;;;;;;9.60;7.32;;;;;;;22.73;81.61;100580.38;4998580;28;20045;-66
2021/07/10 09:13:58;;;;;;;10.20;8.27;;;;;;;22.96;79.64;100586.13;5013320;28;20076;-66
2021/07/10 09:16:42;;;;;;;11.00;7.95;;;;;;;23.23;79.23;100574.94;4998995;28;20052;-66
2021/07/10 09:19:26;;;;;;;8.90;7.28;;;;;;;23.42;74.74;100582.13;4998585;28;20472;-66
2021/07/10 09:22:10;;;;;;;;;;;;;;;23.55;74.21;100576.59;4985457;28;20136;-66
2021/07/10 09:24:55;;;;;;;15.97;8.10;;;;;;;23.75;74.98;100580.00;4999002;28;20012;-66
2021/07/10 09:27:49;;;;;;;8.68;6.68;;;;;;;23.95;68.68;100572.53;5000311;28;20330;-67
2021/07/10 09:30:38;;;;;;;7.18;6.47;;;;;;;24.11;67.08;100580.16;5002899;28;20040;-67
2021/07/10 09:33:22;;;;;;;9.27;6.75;;;;;;;24.33;66.50;100574.06;5017553;28;20060;-66
2021/07/10 09:36:07;;;;;;;6.88;6.22;;;;;;;24.43;60.46;100568.09;5017317;28;20506;-66
2021/07/10 09:38:53;;;;;;;7.93;7.03;;;;;;;24.51;63.71;100570.53;5017303;28;20103;-68
2021/07/10 09:41:37;;;;;;;8.20;6.43;;;;;;;24.53;64.14;100563.81;5017194;28;20088;-66
2021/07/10 09:44:21;;;;;;;;;;;;;;;24.52;62.63;100564.00;5003078;28;20056;-64
2021/07/10 09:47:05;;;;;;;7.00;6.37;;;;;;;24.70;62.49;100558.59;5002305;28;19920;-66
2021/07/10 09:49:48;;;;;;;;;;;;;;;24.83;62.32;100550.22;5017780;28;20172;-66
2021/07/10 09:52:35;;;;;;;7.60;6.80;;;;;;;24.97;61.57;100558.00;5017246;28;20294;-66
2021/07/10 09:55:19;;;;;;;7.82;6.85;;;;;;;25.20;59.02;100549.94;5016818;28;20048;-66
2021/07/10 09:58:03;;;;;;;9.85;6.40;;;;;;;25.42;61.35;100545.63;5016863;28;20061;-66
2021/07/10 10:00:47;;;;;;;;;;;;;;;25.59;60.36;100549.34;5017417;28;20087;-67
2021/07/10 10:03:32;;;;;;;6.55;5.95;;;;;;;25.80;56.05;100540.59;5017050;28;19920;-66
2021/07/10 10:06:35;;;;;;;7.80;6.15;;;;;;;26.10;58.71;100533.16;5001804;28;20052;-66
2021/07/10 10:09:24;;;;;;;5.90;5.40;;;;;;;26.41;56.60;100534.66;4988129;28;20077;-66
2021/07/10 10:12:15;;;;;;;7.07;5.30;;;;;;;26.60;54.20;100519.81;5016604;28;20139;-67
2021/07/10 10:14:58;;;;;;;5.53;4.95;;;;;;;26.71;51.89;100513.47;5001846;28;20053;-66
2021/07/10 10:17:42;;;;;;;;;;;;;;;26.89;52.45;100516.03;5016761;28;20108;-66
2021/07/10 10:20:27;;;;;;;5.85;5.25;;;;;;;27.08;52.59;100519.16;5001338;28;19928;-67
2021/07/10 10:23:12;;;;;;;5.47;4.75;;;;;;;27.59;50.16;100515.44;5016504;28;20100;-66
2021/07/10 10:25:57;;;;;;;5.07;4.57;;;;;;;28.01;52.77;100511.22;5001327;28;20077;-67
2021/07/10 10:28:41;;;;;;;5.45;4.50;;;;;;;28.31;48.86;100509.75;5001194;28;20053;-67
2021/07/10 10:31:25;;;;;;;4.97;4.53;;;;;;;28.54;45.75;100501.28;5001153;28;20104;-67
2021/07/10 10:34:09;;;;;;;6.35;4.47;;;;;;;29.18;45.67;100496.84;5001406;28;20096;-66
2021/07/10 10:36:55;;;;;;;4.88;4.47;;;;;;;30.79;42.84;100492.25;5001409;28;20415;-68
2021/07/10 10:39:39;;;;;;;5.13;4.25;;;;;;;32.45;40.13;100488.44;5000355;28;20045;-67
2021/07/10 10:42:24;;;;;;;8.93;4.60;;;;;;;33.90;36.85;100475.41;5016223;28;20056;-67
2021/07/10 10:45:09;;;;;;;10.20;4.45;;;;;;;35.27;34.64;100474.25;5001223;28;20558;-67
2021/07/10 10:47:53;;;;;;;8.70;4.25;;;;;;;36.10;32.80;100477.81;5015993;28;20139;-66
2021/07/10 10:50:39;;;;;;;4.45;3.60;;;;;;;37.28;29.64;100481.16;5015911;28;20403;-67
2021/07/10 10:53:23;;;;;;;6.95;3.80;;;;;;;37.83;28.07;100467.84;5000839;28;20052;-66
2021/07/10 10:56:36;;;;;;;3.75;3.40;;;;;;;38.49;26.64;100468.53;5000421;28;20425;-67
2021/07/10 10:59:38;;;;;;;4.22;3.88;;;;;;;38.72;27.39;100469.25;5001238;28;20052;-66
2021/07/10 11:02:24;;;;;;;4.35;3.95;;;;;;;39.42;26.59;100463.13;5000764;28;20160;-67
2021/07/10 11:05:09;;;;;;;5.90;4.00;;;;;;;40.03;25.38;100461.84;5015734;28;20052;-68
2021/07/10 11:08:19;;;;;;;4.47;4.07;;;;;;;40.10;25.35;100453.81;5015549;28;20052;-67
2021/07/10 11:11:03;;;;;;;6.57;4.43;;;;;;;40.72;25.38;100452.84;5015690;28;20048;-66
2021/07/10 11:14:00;;;;;;;4.70;4.28;;;;;;;41.21;22.57;100448.41;5015294;28;20103;-67
2021/07/10 11:17:02;;;;;;;6.25;4.70;;;;;;;41.25;23.28;100444.59;5015473;28;20052;-67
2021/07/10 11:19:48;;;;;;;7.53;4.22;;;;;;;41.10;23.94;100448.00;5015541;28;20445;-66
2021/07/10 11:22:56;;;;;;;4.85;4.00;;;;;;;41.59;23.00;100438.69;4987040;28;20099;-66
2021/07/10 11:25:47;;;;;;;4.07;3.78;;;;;;;41.87;21.65;100445.31;5015037;28;20041;-67
2021/07/10 11:28:38;;;;;;;4.95;3.70;;;;;;;41.82;21.75;100434.31;5015136;28;20112;-66
2021/07/10 11:31:32;;;;;;;4.57;3.72;;;;;;;42.06;21.47;100425.16;5014986;28;20572;-66
2021/07/10 11:34:18;;;;;;;4.15;3.78;;;;;;;42.25;21.95;100415.03;5015579;28;20048;-66
2021/07/10 11:37:26;;;;;;;4.32;3.72;;;;;;;42.61;21.54;100412.25;5014658;28;20184;-67
2021/07/10 11:40:11;;;;;;;3.97;3.60;;;;;;;42.31;20.92;100405.22;4999674;28;20044;-67
2021/07/10 11:43:06;;;;;;;3.95;3.55;;;;;;;42.60;19.86;100390.97;4986279;28;20072;-67
2021/07/10 11:45:50;;;;;;;4.35;3.50;;;;;;;42.69;20.71;100395.28;5014691;28;20045;-67
2021/07/10 11:48:33;;;;;;;3.90;3.10;;;;;;;42.79;20.04;100377.94;4999722;28;20120;-67
2021/07/10 11:51:18;;;;;;;4.88;3.35;;;;;;;42.80;20.83;100378.78;4999772;28;20529;-67
2021/07/10 11:54:03;;;;;;;4.78;3.40;;;;;;;42.70;20.33;100380.06;5014598;28;20052;-67
2021/07/10 11:56:51;;;;;;;4.10;3.70;;;;;;;42.73;21.08;100372.94;4999379;28;20060;-64
2021/07/10 11:59:35;;;;;;;3.85;3.40;;;;;;;43.32;21.01;100373.94;5014201;28;20052;-67
2021/07/10 12:02:26;;;;;;;4.63;4.13;;;;;;;43.36;18.45;100372.06;4999793;28;20058;-67
2021/07/10 12:05:16;;;;;;;4.28;3.90;;;;;;;43.14;19.20;100362.22;4999605;28;20159;-67
2021/07/10 12:08:00;;;;;;;4.10;3.80;;;;;;;43.20;19.90;100371.19;4999328;28;20570;-66
2021/07/10 12:10:46;;;;;;;4.20;3.90;;;;;;;43.02;19.42;100367.03;4999912;28;20527;-67
2021/07/10 12:13:31;;;;;;;4.30;4.00;;;;;;;42.79;19.94;100365.94;5014679;28;20045;-68
2021/07/10 12:16:17;;;;;;;4.10;3.65;;;;;;;42.22;20.01;100362.50;5014327;28;20115;-67
2021/07/10 12:19:03;;;;;;;3.88;3.58;;;;;;;41.50;21.40;100367.13;5014671;28;20065;-67
2021/07/10 12:21:46;;;;;;;4.18;3.80;;;;;;;40.32;23.23;100353.78;4999526;28;20119;-67
2021/07/10 12:24:30;;;;;;;4.95;3.55;;;;;;;39.25;23.63;100355.50;5014304;28;20475;-67
2021/07/10 12:27:16;;;;;;;4.68;3.70;;;;;;;38.02;24.82;100357.13;4999084;28;20052;-67
2021/07/10 12:29:59;;;;;;;4.25;3.70;;;;;;;37.53;25.20;100351.78;4999116;28;20044;-66
2021/07/10 12:32:43;;;;;;;3.97;3.58;;;;;;;38.10;24.69;100345.19;5013737;28;20068;-66